createdAt,value
2019-04-04T00:00:45.000Z,26.7
2019-04-04T00:02:45.000Z,26.5
2019-04-04T00:04:45.000Z,26.4
2019-04-04T00:05:45.000Z,26.5
2019-04-04T00:06:45.000Z,26.6
2019-04-04T00:08:30.000Z,26.8
2019-04-04T00:09:32.000Z,26.8
2019-04-04T00:11:45.000Z,26.7
2019-04-04T00:12:45.000Z,26.7
2019-04-04T00:13:45.000Z,26.8
2019-04-04T00:14:45.000Z,26.9
2019-04-04T00:15:45.000Z,27
2019-04-04T00:17:45.000Z,27.1
2019-04-04T00:18:45.000Z,27.1
2019-04-04T00:20:30.000Z,27.1
2019-04-04T00:21:32.000Z,27
2019-04-04T00:22:45.000Z,26.9
2019-04-04T00:23:45.000Z,26.9
2019-04-04T00:24:45.000Z,26.9
2019-04-04T00:26:45.000Z,27
2019-04-04T00:28:45.000Z,27.1
2019-04-04T00:30:45.000Z,27.1
2019-04-04T00:32:45.000Z,26.9
2019-04-04T00:33:45.000Z,26.9
2019-04-04T00:35:30.000Z,27
2019-04-04T00:36:30.000Z,26.9
2019-04-04T00:37:45.000Z,26.9
2019-04-04T00:38:45.000Z,26.8
2019-04-04T00:40:45.000Z,26.9
2019-04-04T00:41:45.000Z,27
2019-04-04T00:43:45.000Z,27
2019-04-04T00:44:45.000Z,27.1
2019-04-04T00:46:30.000Z,27.2
2019-04-04T00:48:30.000Z,27
2019-04-04T01:32:10.000Z,25.1
2019-04-04T01:33:10.000Z,25.3
2019-04-04T01:34:10.000Z,25.4
2019-04-04T01:36:10.000Z,25.8
2019-04-04T01:37:57.000Z,26
2019-04-04T01:39:10.000Z,26.1
2019-04-04T01:40:10.000Z,26.2
2019-04-04T01:41:10.000Z,26.3
2019-04-04T01:42:10.000Z,26.4
2019-04-04T01:43:55.000Z,26.6
2019-04-04T01:45:10.000Z,26.6
2019-04-04T01:47:10.000Z,26.5
2019-04-04T01:49:10.000Z,26.5
2019-04-04T01:50:10.000Z,26.6
2019-04-04T01:51:55.000Z,26.8
2019-04-04T01:52:58.000Z,26.7
2019-04-04T01:54:10.000Z,26.6
2019-04-04T01:55:10.000Z,26.6
2019-04-04T01:57:10.000Z,26.7
2019-04-04T01:58:10.000Z,26.8
2019-04-04T02:00:10.000Z,26.9
2019-04-04T02:02:10.000Z,26.8
2019-04-04T02:03:10.000Z,26.8
2019-04-04T02:04:55.000Z,26.9
2019-04-04T02:05:55.000Z,26.9
2019-04-04T02:06:58.000Z,26.8
2019-04-04T02:08:10.000Z,26.7
2019-04-04T02:09:10.000Z,26.7
2019-04-04T02:11:10.000Z,26.8
2019-04-04T02:13:10.000Z,26.9
2019-04-04T02:14:10.000Z,26.9
2019-04-04T02:16:10.000Z,26.9
2019-04-04T02:17:10.000Z,26.9
2019-04-04T02:19:10.000Z,27
2019-04-04T02:20:57.000Z,27
2019-04-04T02:22:10.000Z,27
2019-04-04T02:23:10.000Z,27
2019-04-04T02:24:10.000Z,27.1
2019-04-04T02:25:10.000Z,27.1
2019-04-04T02:27:10.000Z,27.2
2019-04-04T02:28:10.000Z,27.2
2019-04-04T02:30:10.000Z,27.2
2019-04-04T02:31:10.000Z,27.2
2019-04-04T02:32:10.000Z,27.2
2019-04-04T02:34:10.000Z,27.1
2019-04-04T02:35:10.000Z,27.1
2019-04-04T02:37:10.000Z,27.1
2019-04-04T02:38:59.000Z,27
2019-04-04T02:40:10.000Z,26.9
2019-04-04T02:41:10.000Z,26.9
2019-04-04T02:43:10.000Z,26.9
2019-04-04T02:45:10.000Z,26.9
2019-04-04T02:46:10.000Z,26.9
2019-04-04T02:48:10.000Z,26.8
2019-04-04T02:50:10.000Z,26.8
2019-04-04T02:52:10.000Z,26.8
2019-04-04T02:54:10.000Z,26.8
2019-04-04T02:56:10.000Z,26.7
2019-04-04T02:57:10.000Z,26.7
2019-04-04T02:59:10.000Z,26.9
2019-04-04T03:00:10.000Z,26.9
2019-04-04T03:02:10.000Z,26.9
2019-04-04T03:03:10.000Z,27
2019-04-04T03:05:10.000Z,27
2019-04-04T03:06:10.000Z,27.1
2019-04-04T03:08:10.000Z,27
2019-04-04T03:09:10.000Z,27
2019-04-04T03:10:10.000Z,27.1
2019-04-04T03:12:10.000Z,27
2019-04-04T03:14:10.000Z,26.9
2019-04-04T03:15:10.000Z,26.9
2019-04-04T03:16:55.000Z,27
2019-04-04T03:19:10.000Z,26.7
2019-04-04T03:20:10.000Z,26.7
2019-04-04T03:21:55.000Z,26.6
2019-04-04T03:24:10.000Z,26.5
2019-04-04T03:25:10.000Z,26.5
2019-04-04T03:27:10.000Z,26.6
2019-04-04T03:29:10.000Z,26.6
2019-04-04T03:30:10.000Z,26.6
2019-04-04T03:32:10.000Z,26.6
2019-04-04T03:33:10.000Z,26.6
2019-04-04T03:35:10.000Z,26.5
2019-04-04T03:37:10.000Z,26.5
2019-04-04T03:38:10.000Z,26.4
2019-04-04T03:40:10.000Z,26.4
2019-04-04T03:42:10.000Z,26.4
2019-04-04T03:43:10.000Z,26.4
2019-04-04T03:44:55.000Z,26.4
2019-04-04T03:45:55.000Z,26.5
2019-04-04T03:47:10.000Z,26.5
2019-04-04T03:48:10.000Z,26.5
2019-04-04T03:49:55.000Z,26.5
2019-04-04T03:50:56.000Z,26.4
2019-04-04T03:52:10.000Z,26.3
2019-04-04T03:54:10.000Z,26.2
2019-04-04T03:55:59.000Z,26.2
2019-04-04T03:57:10.000Z,26.2
2019-04-04T03:58:10.000Z,26.2
2019-04-04T04:00:10.000Z,26.2
2019-04-04T04:01:10.000Z,26.3
2019-04-04T04:03:10.000Z,26.4
2019-04-04T04:04:55.000Z,26.5
2019-04-04T04:06:10.000Z,26.5
2019-04-04T04:07:10.000Z,26.5
2019-04-04T04:09:10.000Z,26.5
2019-04-04T04:11:10.000Z,26.6
2019-04-04T04:12:10.000Z,26.6
2019-04-04T04:14:10.000Z,26.6
2019-04-04T04:15:10.000Z,26.6
2019-04-04T04:17:10.000Z,26.7
2019-04-04T04:18:55.000Z,26.6
2019-04-04T04:20:10.000Z,26.6
2019-04-04T04:21:10.000Z,26.6
2019-04-04T04:23:10.000Z,26.6
2019-04-04T04:24:55.000Z,26.6
2019-04-04T04:26:10.000Z,26.6
2019-04-04T04:28:10.000Z,26.7
2019-04-04T04:30:10.000Z,26.8
2019-04-04T04:31:10.000Z,26.8
2019-04-04T04:32:55.000Z,26.9
2019-04-04T04:34:10.000Z,26.8
2019-04-04T04:36:10.000Z,26.7
2019-04-04T04:38:10.000Z,26.6
2019-04-04T04:40:10.000Z,26.5
2019-04-04T04:42:10.000Z,26.4
2019-04-04T04:44:10.000Z,26.4
2019-04-04T04:46:10.000Z,26.5
2019-04-04T04:47:10.000Z,26.5
2019-04-04T04:49:10.000Z,26.6
2019-04-04T04:50:10.000Z,26.7
2019-04-04T04:52:10.000Z,26.9
2019-04-04T04:54:10.000Z,26.9
2019-04-04T04:55:55.000Z,26.9
2019-04-04T04:57:10.000Z,26.8
2019-04-04T04:59:10.000Z,26.6
2019-04-04T05:00:10.000Z,26.6
2019-04-04T05:02:10.000Z,26.6
2019-04-04T05:03:55.000Z,26.7
2019-04-04T05:04:58.000Z,26.7
2019-04-04T05:06:10.000Z,26.6
2019-04-04T05:07:10.000Z,26.6
2019-04-04T05:08:10.000Z,26.7
2019-04-04T05:10:10.000Z,27
2019-04-04T05:12:10.000Z,27
2019-04-04T05:13:54.000Z,27
2019-04-04T05:15:10.000Z,27
2019-04-04T05:16:10.000Z,27
2019-04-04T05:17:10.000Z,27.1
2019-04-04T05:18:10.000Z,27.2
2019-04-04T05:20:10.000Z,27.3
2019-04-04T05:22:10.000Z,27.2
2019-04-04T05:24:10.000Z,27.2
2019-04-04T05:26:10.000Z,27.2
2019-04-04T05:27:10.000Z,27.2
2019-04-04T05:28:55.000Z,27.2
2019-04-04T05:30:10.000Z,27.2
2019-04-04T05:31:10.000Z,27.2
2019-04-04T05:32:55.000Z,27.3
2019-04-04T05:33:58.000Z,27.2
2019-04-04T05:35:10.000Z,27.1
2019-04-04T05:36:10.000Z,27.1
2019-04-04T05:37:10.000Z,27.2
2019-04-04T05:39:10.000Z,27.3
2019-04-04T05:40:10.000Z,27.4
2019-04-04T05:42:10.000Z,27.5
2019-04-04T05:43:10.000Z,27.6
2019-04-04T05:45:10.000Z,27.6
2019-04-04T05:47:10.000Z,27.6
2019-04-04T05:48:55.000Z,27.5
2019-04-04T05:50:10.000Z,27.4
2019-04-04T05:52:10.000Z,27.3
2019-04-04T05:54:10.000Z,27.3
2019-04-04T05:56:10.000Z,27.3
2019-04-04T05:57:10.000Z,27.2
2019-04-04T05:58:10.000Z,27.3
2019-04-04T05:59:55.000Z,27.2
2019-04-04T06:02:10.000Z,26.6
2019-04-04T06:03:10.000Z,26.3
2019-04-04T06:04:10.000Z,26
2019-04-04T06:05:10.000Z,25.8
2019-04-04T06:06:54.000Z,25.4
2019-04-04T06:08:10.000Z,25.2
2019-04-04T06:09:10.000Z,25.1
2019-04-04T06:11:10.000Z,24.8
2019-04-04T06:12:10.000Z,24.7
2019-04-04T06:13:55.000Z,24.4
2019-04-04T06:15:10.000Z,24.1
2019-04-04T06:16:10.000Z,23.9
2019-04-04T06:17:10.000Z,23.7
2019-04-04T06:19:10.000Z,23.4
2019-04-04T06:21:10.000Z,23
2019-04-04T06:22:55.000Z,22.7
2019-04-04T06:23:55.000Z,22.5
2019-04-04T06:24:58.000Z,22.4
2019-04-04T06:26:10.000Z,22.2
2019-04-04T06:27:10.000Z,22
2019-04-04T06:28:10.000Z,22
2019-04-04T06:30:10.000Z,22
2019-04-04T06:31:10.000Z,22.1
2019-04-04T06:33:10.000Z,22.1
2019-04-04T06:34:55.000Z,22.3
2019-04-04T06:36:10.000Z,22.5
2019-04-04T06:37:10.000Z,22.6
2019-04-04T06:38:10.000Z,22.9
2019-04-04T06:39:55.000Z,23.3
2019-04-04T06:41:10.000Z,23.5
2019-04-04T06:43:10.000Z,23.8
2019-04-04T06:45:10.000Z,24
2019-04-04T06:47:10.000Z,24.2
2019-04-04T06:48:55.000Z,24.4
2019-04-04T06:50:10.000Z,24.6
2019-04-04T06:51:10.000Z,24.8
2019-04-04T06:52:55.000Z,25
2019-04-04T06:54:10.000Z,25.1
2019-04-04T06:56:10.000Z,25.2
2019-04-04T06:58:10.000Z,25.4
2019-04-04T06:59:10.000Z,25.5
2019-04-04T07:01:10.000Z,25.6
2019-04-04T07:02:10.000Z,25.7
2019-04-04T07:03:58.000Z,25.9
2019-04-04T07:05:10.000Z,25.9
2019-04-04T07:06:10.000Z,25.9
2019-04-04T07:08:10.000Z,26.1
2019-04-04T07:09:55.000Z,26
2019-04-04T07:12:10.000Z,26
2019-04-04T07:13:55.000Z,26
2019-04-04T07:15:10.000Z,25.9
2019-04-04T07:16:55.000Z,25.7
2019-04-04T07:19:10.000Z,25.3
2019-04-04T07:20:10.000Z,25.1
2019-04-04T07:21:10.000Z,24.9
2019-04-04T07:22:10.000Z,24.9
2019-04-04T07:23:58.000Z,24.7
2019-04-04T07:25:10.000Z,24.5
2019-04-04T07:26:10.000Z,24.4
2019-04-04T07:28:10.000Z,24.2
2019-04-04T07:29:55.000Z,24.2
2019-04-04T07:32:10.000Z,23.8
2019-04-04T07:33:55.000Z,23.7
2019-04-04T07:35:10.000Z,23.6
2019-04-04T07:36:10.000Z,23.7
2019-04-04T07:37:10.000Z,23.7
2019-04-04T07:39:10.000Z,23.8
2019-04-04T07:41:10.000Z,23.7
2019-04-04T07:42:10.000Z,23.7
2019-04-04T07:43:55.000Z,23.9
2019-04-04T07:45:10.000Z,23.9
2019-04-04T07:47:10.000Z,23.8
2019-04-04T07:48:10.000Z,23.8
2019-04-04T07:50:10.000Z,23.9
2019-04-04T07:52:10.000Z,24
2019-04-04T07:53:10.000Z,24
2019-04-04T07:55:10.000Z,23.9
2019-04-04T07:56:10.000Z,23.8
2019-04-04T07:58:10.000Z,23.7
2019-04-04T08:00:10.000Z,23.6
2019-04-04T08:01:10.000Z,23.6
2019-04-04T08:02:10.000Z,23.6
2019-04-04T08:03:10.000Z,23.6
2019-04-04T08:04:10.000Z,23.7
2019-04-04T08:06:10.000Z,23.8
2019-04-04T08:07:10.000Z,23.8
2019-04-04T08:09:10.000Z,23.9
2019-04-04T08:11:10.000Z,23.9
2019-04-04T08:13:10.000Z,23.8
2019-04-04T08:15:10.000Z,23.7
2019-04-04T08:16:10.000Z,23.7
2019-04-04T08:17:55.000Z,23.8
2019-04-04T08:19:10.000Z,23.8
2019-04-04T08:21:10.000Z,23.8
2019-04-04T08:23:10.000Z,23.7
2019-04-04T08:24:10.000Z,23.7
2019-04-04T08:25:10.000Z,23.8
2019-04-04T08:26:10.000Z,23.8
2019-04-04T08:28:10.000Z,23.8
2019-04-04T08:30:10.000Z,23.6
2019-04-04T08:32:10.000Z,23.3
2019-04-04T08:34:10.000Z,23.1
2019-04-04T08:35:10.000Z,23
2019-04-04T08:37:10.000Z,22.9
2019-04-04T08:38:10.000Z,22.8
2019-04-04T08:39:10.000Z,22.8
2019-04-04T08:40:10.000Z,22.8
2019-04-04T08:41:10.000Z,22.8
2019-04-04T08:43:10.000Z,22.8
2019-04-04T08:45:10.000Z,22.8
2019-04-04T08:46:10.000Z,22.8
2019-04-04T08:48:10.000Z,22.8
2019-04-04T08:49:10.000Z,22.8
2019-04-04T08:50:10.000Z,22.8
2019-04-04T08:51:55.000Z,22.8
2019-04-04T08:53:10.000Z,22.8
2019-04-04T08:55:10.000Z,22.9
2019-04-04T08:57:10.000Z,23.2
2019-04-04T08:58:10.000Z,23.4
2019-04-04T08:59:55.000Z,23.7
2019-04-04T09:01:10.000Z,23.9
2019-04-04T09:03:10.000Z,24.3
2019-04-04T09:04:10.000Z,24.4
2019-04-04T09:05:10.000Z,24.6
2019-04-04T09:07:10.000Z,24.8
2019-04-04T09:09:10.000Z,25
2019-04-04T09:10:55.000Z,25.1
2019-04-04T09:12:10.000Z,25.2
2019-04-04T09:13:10.000Z,25.3
2019-04-04T09:14:10.000Z,25.4
2019-04-04T09:16:10.000Z,25.7
2019-04-04T09:18:10.000Z,25.8
2019-04-04T09:20:10.000Z,25.9
2019-04-04T09:22:10.000Z,26
2019-04-04T09:24:10.000Z,26
2019-04-04T09:25:55.000Z,26.1
2019-04-04T10:09:08.000Z,25.5
2019-04-04T10:10:23.000Z,25.6
2019-04-04T10:11:23.000Z,25.7
2019-04-04T10:12:23.000Z,25.9
2019-04-04T10:13:23.000Z,26.1
2019-04-04T10:14:23.000Z,26.4
2019-04-04T10:15:23.000Z,26.6
2019-04-04T10:17:23.000Z,27
2019-04-04T10:18:23.000Z,27.1
2019-04-04T10:19:23.000Z,27.2
2019-04-04T10:20:23.000Z,27.4
2019-04-04T10:22:23.000Z,27.5
2019-04-04T10:23:23.000Z,27.5
2019-04-04T10:25:23.000Z,27.6
2019-04-04T10:27:22.000Z,27.6
2019-04-04T10:28:23.000Z,27.6
2019-04-04T10:30:22.000Z,27.7
2019-04-04T10:32:22.000Z,27.7
2019-04-04T10:34:22.000Z,27.7
2019-04-04T10:36:22.000Z,27.7
2019-04-04T10:38:22.000Z,27.6
2019-04-04T10:40:22.000Z,27.6
2019-04-04T10:41:22.000Z,27.6
2019-04-04T10:43:22.000Z,27.6
2019-04-04T10:45:22.000Z,27.6
2019-04-04T10:47:22.000Z,27.6
2019-04-04T10:49:22.000Z,27.6
2019-04-04T10:50:22.000Z,27.6
2019-04-04T10:52:22.000Z,27.8
2019-04-04T10:53:22.000Z,27.8
2019-04-04T10:55:07.000Z,27.9
2019-04-04T10:56:22.000Z,27.9
2019-04-04T10:57:22.000Z,27.9
2019-04-04T10:59:22.000Z,28
2019-04-04T11:00:22.000Z,27.9
2019-04-04T11:02:22.000Z,28
2019-04-04T11:04:07.000Z,28
2019-04-04T11:05:22.000Z,28
2019-04-04T11:07:07.000Z,28
2019-04-04T11:08:22.000Z,28
2019-04-04T11:10:22.000Z,28
2019-04-04T11:11:22.000Z,28
2019-04-04T11:13:07.000Z,28.1
2019-04-04T11:14:22.000Z,28.1
2019-04-04T11:15:22.000Z,28
2019-04-04T11:16:22.000Z,28
2019-04-04T11:18:22.000Z,28
2019-04-04T11:20:22.000Z,28
2019-04-04T11:21:22.000Z,28
2019-04-04T11:22:22.000Z,28.1
2019-04-04T11:24:22.000Z,28.1
2019-04-04T11:26:22.000Z,28.1
2019-04-04T11:27:22.000Z,28.2
2019-04-04T11:28:22.000Z,28.2
2019-04-04T11:30:07.000Z,28.2
2019-04-04T11:31:23.000Z,28.2
2019-04-04T11:32:23.000Z,28.2
2019-04-04T11:33:23.000Z,28.3
2019-04-04T11:35:23.000Z,28.4
2019-04-04T11:36:23.000Z,28.4
2019-04-04T11:38:23.000Z,28.5
2019-04-04T11:40:23.000Z,28.5
2019-04-04T11:42:23.000Z,28.5
2019-04-04T11:44:23.000Z,28.5
2019-04-04T11:46:23.000Z,28.5
2019-04-04T11:47:23.000Z,28.5
2019-04-04T11:48:23.000Z,28.6
2019-04-04T11:50:23.000Z,28.6
2019-04-04T11:52:23.000Z,28.6
2019-04-04T11:53:23.000Z,28.6
2019-04-04T11:55:23.000Z,28.6
2019-04-04T11:56:23.000Z,28.7
2019-04-04T11:58:23.000Z,28.7
2019-04-04T11:59:23.000Z,28.7
2019-04-04T12:00:23.000Z,28.8
2019-04-04T12:01:23.000Z,28.9
2019-04-04T12:02:23.000Z,29
2019-04-04T12:04:23.000Z,29.1
2019-04-04T12:06:23.000Z,29.1
2019-04-04T12:07:23.000Z,29.1
2019-04-04T12:09:23.000Z,29.1
2019-04-04T12:11:23.000Z,29.1
2019-04-04T12:13:23.000Z,29.1
2019-04-04T12:14:23.000Z,29.1
2019-04-04T12:15:23.000Z,29.1
2019-04-04T12:17:08.000Z,29.2
2019-04-04T12:18:23.000Z,29.2
2019-04-04T12:19:23.000Z,29.2
2019-04-04T12:21:23.000Z,29.2
2019-04-04T12:23:23.000Z,29.2
2019-04-04T12:24:23.000Z,29.1
2019-04-04T12:26:23.000Z,29.2
2019-04-04T12:28:23.000Z,29.1
2019-04-04T12:29:23.000Z,29.1
2019-04-04T12:31:23.000Z,29.1
2019-04-04T12:32:23.000Z,29.1
2019-04-04T12:33:23.000Z,29.1
2019-04-04T12:35:23.000Z,29.2
2019-04-04T12:36:23.000Z,29.2
2019-04-04T12:38:23.000Z,29.2
2019-04-04T12:40:08.000Z,29.2
2019-04-04T12:41:23.000Z,29.1
2019-04-04T12:42:23.000Z,29
2019-04-04T12:44:23.000Z,29
2019-04-04T12:46:23.000Z,29
2019-04-04T12:47:23.000Z,29.1
2019-04-04T12:49:08.000Z,29.1
2019-04-04T12:50:23.000Z,29.1
2019-04-04T12:51:23.000Z,29.1
2019-04-04T12:53:08.000Z,29.2
2019-04-04T12:54:23.000Z,29.2
2019-04-04T12:55:23.000Z,29.3
2019-04-04T12:57:23.000Z,29.4
2019-04-04T12:59:23.000Z,29.4
2019-04-04T13:00:23.000Z,29.4
2019-04-04T13:02:23.000Z,29.5
2019-04-04T13:03:23.000Z,29.6
2019-04-04T13:04:23.000Z,29.6
2019-04-04T13:06:23.000Z,29.6
2019-04-04T13:07:23.000Z,29.5
2019-04-04T13:09:23.000Z,29.6
2019-04-04T13:11:23.000Z,29.6
2019-04-04T13:12:23.000Z,29.6
2019-04-04T13:13:23.000Z,29.6
2019-04-04T13:15:23.000Z,29.7
2019-04-04T13:17:23.000Z,29.7
2019-04-04T13:19:08.000Z,29.6
2019-04-04T13:20:23.000Z,29.6
2019-04-04T13:21:23.000Z,29.6
2019-04-04T13:22:23.000Z,29.7
2019-04-04T13:24:23.000Z,29.8
2019-04-04T13:25:23.000Z,29.8
2019-04-04T13:27:23.000Z,29.8
2019-04-04T13:28:23.000Z,29.8
2019-04-04T13:29:23.000Z,29.8
2019-04-04T13:31:23.000Z,29.7
2019-04-04T13:33:23.000Z,29.6
2019-04-04T13:35:23.000Z,29.6
2019-04-04T13:37:23.000Z,29.6
2019-04-04T13:39:23.000Z,29.5
2019-04-04T13:40:23.000Z,29.5
2019-04-04T13:42:08.000Z,29.5
2019-04-04T13:43:23.000Z,29.5
2019-04-04T13:44:23.000Z,29.5
2019-04-04T13:46:08.000Z,29.4
2019-04-04T13:47:23.000Z,29.3
2019-04-04T13:49:23.000Z,29.1
2019-04-04T13:51:08.000Z,29
2019-04-04T13:52:11.000Z,29
2019-04-04T13:54:23.000Z,28.8
2019-04-04T13:55:23.000Z,28.8
2019-04-04T13:57:23.000Z,28.9
2019-04-04T13:59:23.000Z,28.9
2019-04-04T14:00:23.000Z,28.9
2019-04-04T14:02:23.000Z,29
2019-04-04T14:04:23.000Z,29.1
2019-04-04T14:06:23.000Z,29
2019-04-04T14:07:23.000Z,29
2019-04-04T14:08:23.000Z,29
2019-04-04T14:10:23.000Z,29
2019-04-04T14:11:23.000Z,29.1
2019-04-04T14:13:08.000Z,29.1
2019-04-04T14:14:23.000Z,29
2019-04-04T14:15:23.000Z,29.1
2019-04-04T14:17:23.000Z,29.1
2019-04-04T14:18:23.000Z,29.1
2019-04-04T14:20:23.000Z,29.2
2019-04-04T14:22:23.000Z,29.2
2019-04-04T14:24:08.000Z,29.2
2019-04-04T14:25:23.000Z,29.1
2019-04-04T14:26:23.000Z,29.1
2019-04-04T14:28:23.000Z,29.1
2019-04-04T14:30:23.000Z,29
2019-04-04T14:32:23.000Z,29
2019-04-04T14:34:08.000Z,29
2019-04-04T14:36:08.000Z,28.9
2019-04-04T14:37:23.000Z,28.8
2019-04-04T14:39:23.000Z,28.8
2019-04-04T14:40:23.000Z,28.9
2019-04-04T14:42:23.000Z,29
2019-04-04T14:44:23.000Z,29
2019-04-04T14:45:23.000Z,29
2019-04-04T14:47:23.000Z,29.1
2019-04-04T14:49:08.000Z,29.1
2019-04-04T14:50:23.000Z,29.1
2019-04-04T14:52:23.000Z,29.1
2019-04-04T14:54:23.000Z,29.1
2019-04-04T14:56:23.000Z,29
2019-04-04T14:57:23.000Z,29
2019-04-04T14:58:23.000Z,29.1
2019-04-04T14:59:23.000Z,29.1
2019-04-04T15:01:08.000Z,29.2
2019-04-04T15:02:23.000Z,29.2
2019-04-04T15:03:23.000Z,29.2
2019-04-04T15:05:23.000Z,29.2
2019-04-04T15:07:23.000Z,29.2
2019-04-04T15:08:23.000Z,29.2
2019-04-04T15:10:08.000Z,29.2
2019-04-04T15:11:23.000Z,29.2
2019-04-04T15:13:23.000Z,29.1
2019-04-04T15:15:23.000Z,29
2019-04-04T15:17:23.000Z,28.8
2019-04-04T15:18:23.000Z,28.8
2019-04-04T15:20:23.000Z,28.7
2019-04-04T15:22:23.000Z,28.8
2019-04-04T15:23:23.000Z,28.8
2019-04-04T15:25:23.000Z,28.9
2019-04-04T15:27:23.000Z,28.9
2019-04-04T15:28:23.000Z,28.9
2019-04-04T15:30:23.000Z,28.9
2019-04-04T15:31:23.000Z,28.9
2019-04-04T15:33:23.000Z,28.9
2019-04-04T15:34:23.000Z,28.9
2019-04-04T15:36:23.000Z,28.9
2019-04-04T15:38:08.000Z,29
2019-04-04T15:39:23.000Z,28.9
2019-04-04T15:40:23.000Z,28.9
2019-04-04T15:42:23.000Z,29
2019-04-04T15:44:23.000Z,29
2019-04-04T15:46:08.000Z,28.9
2019-04-04T15:47:23.000Z,28.8
2019-04-04T15:48:23.000Z,28.8
2019-04-04T15:49:23.000Z,28.8
2019-04-04T15:51:23.000Z,28.9
2019-04-04T15:52:23.000Z,28.9
2019-04-04T15:54:23.000Z,28.9
2019-04-04T15:56:23.000Z,28.9
2019-04-04T15:57:23.000Z,28.9
2019-04-04T15:59:23.000Z,28.9
2019-04-04T16:01:23.000Z,28.9
2019-04-04T16:03:23.000Z,28.9
2019-04-04T16:05:23.000Z,28.9
2019-04-04T16:06:23.000Z,28.8
2019-04-04T16:08:23.000Z,28.8
2019-04-04T16:09:23.000Z,28.8
2019-04-04T16:11:23.000Z,28.9
2019-04-04T16:13:23.000Z,28.8
2019-04-04T16:14:23.000Z,28.7
2019-04-04T16:15:23.000Z,28.7
2019-04-04T16:16:23.000Z,28.8
2019-04-04T16:18:23.000Z,28.9
2019-04-04T16:19:23.000Z,28.9
2019-04-04T16:21:23.000Z,28.9
2019-04-04T16:22:23.000Z,28.9
2019-04-04T16:23:23.000Z,28.9
2019-04-04T16:25:23.000Z,28.9
2019-04-04T16:27:23.000Z,28.8
2019-04-04T16:28:23.000Z,28.8
2019-04-04T16:30:23.000Z,28.8
2019-04-04T16:31:23.000Z,28.8
2019-04-04T16:33:23.000Z,28.8
2019-04-04T16:35:23.000Z,28.7
2019-04-04T16:37:23.000Z,28.6
2019-04-04T16:39:23.000Z,28.6
2019-04-04T16:41:23.000Z,28.5
2019-04-04T16:43:23.000Z,28.4
2019-04-04T16:44:23.000Z,28.4
2019-04-04T16:45:23.000Z,28.4
2019-04-04T16:47:23.000Z,28.5
2019-04-04T16:49:23.000Z,28.5
2019-04-04T16:50:23.000Z,28.5
2019-04-04T16:52:23.000Z,28.5
2019-04-04T16:53:23.000Z,28.5
2019-04-04T16:54:23.000Z,28.5
2019-04-04T16:56:08.000Z,28.6
2019-04-04T16:57:23.000Z,28.6
2019-04-04T16:59:08.000Z,28.6
2019-04-04T17:00:23.000Z,28.6
2019-04-04T17:02:23.000Z,28.5
2019-04-04T17:03:23.000Z,28.5
2019-04-04T17:05:08.000Z,28.5
2019-04-04T17:06:23.000Z,28.5
2019-04-04T17:07:23.000Z,28.5
2019-04-04T17:09:23.000Z,28.5
2019-04-04T17:10:23.000Z,28.5
2019-04-04T17:12:08.000Z,28.6
2019-04-04T17:13:23.000Z,28.5
2019-04-04T17:14:23.000Z,28.5
2019-04-04T17:15:23.000Z,28.5
2019-04-04T17:17:23.000Z,28.6
2019-04-04T17:18:23.000Z,28.6
2019-04-04T17:20:08.000Z,28.7
2019-04-04T17:21:23.000Z,28.6
2019-04-04T17:23:08.000Z,28.6
2019-04-04T17:24:23.000Z,28.6
2019-04-04T17:25:23.000Z,28.6
2019-04-04T17:26:23.000Z,28.6
2019-04-04T17:28:08.000Z,28.7
2019-04-04T17:29:23.000Z,28.6
2019-04-04T17:31:08.000Z,28.5
2019-04-04T17:32:23.000Z,28.4
2019-04-04T17:34:23.000Z,28.2
2019-04-04T17:36:23.000Z,28
2019-04-04T17:38:23.000Z,27.9
2019-04-04T17:40:08.000Z,27.8
2019-04-04T17:41:23.000Z,27.7
2019-04-04T17:43:08.000Z,27.7
2019-04-04T17:45:09.000Z,27.6
2019-04-04T17:47:08.000Z,27.5
2019-04-04T17:48:23.000Z,27.4
2019-04-04T17:50:23.000Z,27.4
2019-04-04T17:52:08.000Z,27.3
2019-04-04T17:53:23.000Z,27.3
2019-04-04T17:55:23.000Z,27.4
2019-04-04T17:57:23.000Z,27.4
2019-04-04T17:59:23.000Z,27.3
2019-04-04T18:00:23.000Z,27.3
2019-04-04T18:01:23.000Z,27.4
2019-04-04T18:02:23.000Z,27.5
2019-04-04T18:04:23.000Z,27.7
2019-04-04T18:06:08.000Z,27.8
2019-04-04T18:07:23.000Z,27.8
2019-04-04T18:09:08.000Z,27.8
2019-04-04T18:10:23.000Z,27.8
2019-04-04T18:12:23.000Z,27.8
2019-04-04T18:14:23.000Z,27.7
2019-04-04T18:15:23.000Z,27.8
2019-04-04T18:16:23.000Z,27.8
2019-04-04T18:17:23.000Z,27.9
2019-04-04T18:18:23.000Z,28
2019-04-04T18:20:08.000Z,28.1
2019-04-04T18:21:23.000Z,28.1
2019-04-04T18:22:23.000Z,28.2
2019-04-04T18:24:23.000Z,28.2
2019-04-04T18:26:23.000Z,28.2
2019-04-04T18:28:23.000Z,28.1
2019-04-04T18:30:23.000Z,28
2019-04-04T18:31:23.000Z,28
2019-04-04T18:33:08.000Z,28.1
2019-04-04T18:34:08.000Z,28
2019-04-04T18:35:08.000Z,27.9
2019-04-04T18:37:08.000Z,27.7
2019-04-04T18:39:23.000Z,27.5
2019-04-04T18:40:23.000Z,27.5
2019-04-04T18:41:23.000Z,27.5
2019-04-04T18:42:23.000Z,27.5
2019-04-04T18:43:23.000Z,27.6
2019-04-04T18:45:23.000Z,27.8
2019-04-04T18:47:23.000Z,27.8
2019-04-04T18:49:23.000Z,27.9
2019-04-04T18:51:23.000Z,27.9
2019-04-04T18:52:23.000Z,27.9
2019-04-04T18:53:23.000Z,28
2019-04-04T18:55:08.000Z,28.1
2019-04-04T18:56:23.000Z,28
2019-04-04T18:57:23.000Z,28
2019-04-04T18:59:23.000Z,28
2019-04-04T19:00:23.000Z,28
2019-04-04T19:02:23.000Z,28.1
2019-04-04T19:03:23.000Z,28.1
2019-04-04T19:05:23.000Z,28.1
2019-04-04T19:07:23.000Z,28.1
2019-04-04T19:09:08.000Z,28
2019-04-04T19:10:23.000Z,27.9
2019-04-04T19:11:23.000Z,27.9
2019-04-04T19:13:08.000Z,27.9
2019-04-04T19:14:23.000Z,27.9
2019-04-04T19:15:23.000Z,27.9
2019-04-04T19:16:23.000Z,27.9
2019-04-04T19:18:23.000Z,28
2019-04-04T19:20:08.000Z,28
2019-04-04T19:21:23.000Z,27.9
2019-04-04T19:22:23.000Z,27.9
2019-04-04T19:23:23.000Z,27.9
2019-04-04T19:24:23.000Z,28
2019-04-04T19:26:23.000Z,28
2019-04-04T19:27:23.000Z,28
2019-04-04T19:29:23.000Z,27.9
2019-04-04T19:31:23.000Z,27.9
2019-04-04T19:32:23.000Z,27.9
2019-04-04T19:34:23.000Z,28
2019-04-04T19:36:23.000Z,28
2019-04-04T19:38:23.000Z,27.9
2019-04-04T19:40:23.000Z,27.8
2019-04-04T19:42:08.000Z,27.8
2019-04-04T19:43:08.000Z,27.8
2019-04-04T19:44:23.000Z,27.7
2019-04-04T19:45:23.000Z,27.7
2019-04-04T19:47:23.000Z,27.8
2019-04-04T19:49:23.000Z,27.8
2019-04-04T19:50:23.000Z,27.8
2019-04-04T19:52:23.000Z,27.9
2019-04-04T19:54:23.000Z,27.8
2019-04-04T19:55:23.000Z,27.8
2019-04-04T19:56:23.000Z,27.8
2019-04-04T19:57:23.000Z,27.9
2019-04-04T19:59:23.000Z,27.9
2019-04-04T20:00:23.000Z,28
2019-04-04T20:02:23.000Z,28
2019-04-04T20:04:23.000Z,28
2019-04-04T20:06:23.000Z,27.9
2019-04-04T20:07:23.000Z,27.9
2019-04-04T20:09:23.000Z,27.9
2019-04-04T20:11:23.000Z,27.9
2019-04-04T20:13:23.000Z,27.9
2019-04-04T20:15:23.000Z,27.7
2019-04-04T20:17:23.000Z,27.7
2019-04-04T20:19:23.000Z,27.7
2019-04-04T20:21:23.000Z,27.7
2019-04-04T20:23:23.000Z,27.7
2019-04-04T20:24:23.000Z,27.7
2019-04-04T20:26:23.000Z,27.8
2019-04-04T20:28:23.000Z,27.8
2019-04-04T20:30:23.000Z,27.7
2019-04-04T20:32:23.000Z,27.6
2019-04-04T20:33:23.000Z,27.6
2019-04-04T20:34:23.000Z,27.6
2019-04-04T20:36:23.000Z,27.7
2019-04-04T20:37:23.000Z,27.7
2019-04-04T20:39:23.000Z,27.8
2019-04-04T20:40:23.000Z,27.8
2019-04-04T20:42:23.000Z,27.8
2019-04-04T20:44:23.000Z,27.8
2019-04-04T20:45:23.000Z,27.9
2019-04-04T20:47:23.000Z,27.9
2019-04-04T20:48:23.000Z,27.9
2019-04-04T20:50:23.000Z,28
2019-04-04T20:51:23.000Z,28
2019-04-04T20:53:23.000Z,28
2019-04-04T20:54:23.000Z,28
2019-04-04T20:55:23.000Z,28
2019-04-04T20:57:23.000Z,28
2019-04-04T20:59:23.000Z,28
2019-04-04T21:01:07.000Z,28
2019-04-04T21:02:23.000Z,27.9
2019-04-04T21:03:23.000Z,27.9
2019-04-04T21:05:23.000Z,27.9
2019-04-04T21:07:23.000Z,27.8
2019-04-04T21:09:23.000Z,27.8
2019-04-04T21:10:23.000Z,27.8
2019-04-04T21:12:08.000Z,27.8
2019-04-04T21:13:23.000Z,27.7
2019-04-04T21:14:23.000Z,27.7
2019-04-04T21:16:23.000Z,27.6
2019-04-04T21:17:23.000Z,27.6
2019-04-04T21:19:23.000Z,27.7
2019-04-04T21:21:23.000Z,27.7
2019-04-04T21:22:23.000Z,27.7
2019-04-04T21:24:23.000Z,27.7
2019-04-04T21:25:23.000Z,27.7
2019-04-04T21:27:23.000Z,27.8
2019-04-04T21:29:23.000Z,27.8
2019-04-04T21:31:23.000Z,27.7
2019-04-04T21:33:23.000Z,27.7
2019-04-04T21:35:08.000Z,27.6
2019-04-04T21:36:23.000Z,27.6
2019-04-04T21:37:23.000Z,27.6
2019-04-04T21:39:23.000Z,27.7
2019-04-04T21:40:23.000Z,27.7
2019-04-04T21:42:08.000Z,27.8
2019-04-04T21:43:23.000Z,27.8
2019-04-04T21:45:08.000Z,27.8
2019-04-04T21:46:23.000Z,27.7
2019-04-04T21:48:23.000Z,27.7
2019-04-04T21:49:23.000Z,27.7
2019-04-04T21:51:23.000Z,27.8
2019-04-04T21:53:23.000Z,27.7
2019-04-04T21:54:23.000Z,27.7
2019-04-04T21:55:23.000Z,27.8